Kona, Kentucky
Current Conditions -  °F | °C
As of 8:35 PM on Saturday 27 Dec 2014 (Local Time) from KLNP Reporting Station
Overcast Overcast  
Wind Chill: 10°   Ceiling: 4100
Heat Index: 10°   Visibility: 10mi
Dew Point: -3°   Wind: 5mph
Humidity: 40%   Direction: 220°SW
Pressure: 30.16"   Gusts: NA
Location:  37.1283°N, 82.8498°W
Report Text: KLNP 280135Z AUTO 22004KT 10SM SCT032 OVC041 10/M03 A3016 RMK AO2
Loading
Personal Weather Stations






























Interactive Weather Map New forecast layout! Learn more

10-Day Weather Forecast

Advertisements
Track Severe Weather on mobile